Hardwick, Vermont
Current Conditions -  °F | °C
As of 7:15 AM on Friday 24 Oct 2014 (Local Time) from KMVL Reporting Station
Overcast Overcast  
Wind Chill: 37°   Ceiling: 1300
Heat Index: 42°   Visibility: 10mi
Dew Point: 38°   Wind: 8mph
Humidity: 85%   Direction: 330°NNW
Pressure: 29.83"   Gusts: NA
Location:  44.5°N, 72.37°W
Report Text: KMVL 241115Z AUTO 33007KT 10SM OVC013 06/03 A2983 RMK AO2 T00560033
Loading
Personal Weather Stations






























Interactive Weather Map
Tropical Storm Tracking
New forecast layout! Learn more

10-Day Weather Forecast

Advertisements
Track Severe Weather on mobile